createdAt,value
2023-12-23T00:01:39.528Z,1.96
2023-12-23T00:04:06.668Z,1.77
2023-12-23T00:06:33.667Z,1.96
2023-12-23T00:09:00.713Z,1.85
2023-12-23T00:11:27.765Z,1.93
2023-12-23T00:13:54.844Z,1.96
2023-12-23T00:16:21.921Z,2.01
2023-12-23T00:18:49.097Z,2.03
2023-12-23T00:21:16.284Z,1.98
2023-12-23T00:23:43.376Z,1.99
2023-12-23T00:26:10.419Z,1.93
2023-12-23T00:28:37.556Z,1.92
2023-12-23T00:31:04.811Z,1.89
2023-12-23T00:33:31.923Z,1.97
2023-12-23T00:35:59.092Z,1.91
2023-12-23T00:38:26.167Z,2.03
2023-12-23T00:40:53.420Z,1.84
2023-12-23T00:43:20.585Z,1.92
2023-12-23T00:45:47.627Z,2.07
2023-12-23T00:48:14.908Z,2.03
2023-12-23T00:50:42.117Z,1.97
2023-12-23T00:53:09.274Z,1.93
2023-12-23T00:55:36.515Z,1.88
2023-12-23T00:58:03.693Z,1.90
2023-12-23T01:00:30.981Z,1.93
2023-12-23T01:02:58.096Z,2.08
2023-12-23T01:05:25.226Z,2.21
2023-12-23T01:07:52.672Z,2.03
2023-12-23T01:10:23.494Z,1.99
2023-12-23T01:12:50.565Z,2.22
2023-12-23T01:15:17.700Z,1.99
2023-12-23T01:17:44.924Z,1.92
2023-12-23T01:20:12.794Z,1.72
2023-12-23T01:22:39.964Z,2.05
2023-12-23T01:25:07.272Z,2.03
2023-12-23T01:27:34.372Z,1.92
2023-12-23T01:30:01.409Z,1.95
2023-12-23T01:32:29.083Z,2.09
2023-12-23T01:34:56.281Z,1.90
2023-12-23T01:37:23.569Z,1.70
2023-12-23T01:39:50.685Z,1.84
2023-12-23T01:42:17.692Z,1.98
2023-12-23T01:44:44.748Z,1.85
2023-12-23T01:47:12.477Z,1.78
2023-12-23T01:49:41.716Z,1.78
2023-12-23T01:52:09.244Z,1.72
2023-12-23T01:54:36.533Z,1.72
2023-12-23T01:57:03.753Z,1.81
2023-12-23T01:59:30.859Z,1.86
2023-12-23T02:01:59.107Z,1.99
2023-12-23T02:04:26.556Z,1.62
2023-12-23T02:06:53.711Z,1.68
2023-12-23T02:09:20.899Z,1.62
2023-12-23T02:12:16.541Z,1.59
2023-12-23T02:15:04.464Z,1.74
2023-12-23T02:17:31.543Z,1.69
2023-12-23T02:19:58.666Z,1.52
2023-12-23T02:22:25.885Z,1.46
2023-12-23T02:24:52.981Z,1.76
2023-12-23T02:27:28.944Z,1.67
2023-12-23T02:29:57.062Z,1.74
2023-12-23T02:32:25.881Z,1.99
2023-12-23T02:34:54.712Z,1.57
2023-12-23T02:37:21.809Z,1.69
2023-12-23T02:39:48.937Z,1.74
2023-12-23T02:42:15.951Z,2.01
2023-12-23T02:44:43.060Z,2.06
2023-12-23T02:47:10.166Z,1.71
2023-12-23T02:49:37.375Z,1.92
2023-12-23T02:52:04.831Z,1.75
2023-12-23T02:54:31.904Z,1.85
2023-12-23T02:56:59.032Z,1.84
2023-12-23T02:59:26.126Z,1.64
2023-12-23T03:01:54.498Z,1.68
2023-12-23T03:04:21.719Z,1.80
2023-12-23T03:06:49.057Z,2.07
2023-12-23T03:09:16.079Z,1.92
2023-12-23T03:11:43.135Z,1.59
2023-12-23T03:14:10.244Z,1.77
2023-12-23T03:16:37.427Z,1.67
2023-12-23T03:19:04.937Z,1.92
2023-12-23T03:21:32.056Z,1.83
2023-12-23T03:23:59.400Z,1.67
2023-12-23T03:26:26.491Z,2.02
2023-12-23T03:28:53.666Z,1.65
2023-12-23T03:31:20.966Z,1.55
2023-12-23T03:33:48.023Z,1.55
2023-12-23T03:36:17.382Z,1.52
2023-12-23T03:38:44.488Z,1.27
2023-12-23T03:41:11.988Z,1.59
2023-12-23T03:43:39.086Z,1.42
2023-12-23T03:46:06.221Z,1.69
2023-12-23T03:48:33.310Z,1.59
2023-12-23T03:51:00.385Z,1.37
2023-12-23T03:53:27.477Z,1.46
2023-12-23T03:55:54.695Z,1.56
2023-12-23T03:58:21.866Z,1.62
2023-12-23T04:00:48.998Z,1.59
2023-12-23T04:03:16.243Z,1.49
2023-12-23T04:05:43.338Z,1.70
2023-12-23T04:08:10.513Z,2.02
2023-12-23T04:10:37.635Z,1.38
2023-12-23T04:13:04.977Z,1.67
2023-12-23T04:15:32.053Z,1.24
2023-12-23T04:17:59.145Z,1.48
2023-12-23T04:20:26.440Z,1.58
2023-12-23T04:22:53.937Z,1.49
2023-12-23T04:25:22.914Z,1.59
2023-12-23T04:27:52.716Z,1.51
2023-12-23T04:30:19.992Z,1.52
2023-12-23T04:32:48.418Z,1.33
2023-12-23T04:35:15.799Z,1.24
2023-12-23T04:37:43.248Z,1.26
2023-12-23T04:40:12.099Z,1.23
2023-12-23T04:42:39.119Z,1.39
2023-12-23T04:45:08.100Z,1.66
2023-12-23T04:47:35.251Z,1.41
2023-12-23T04:50:02.515Z,1.23
2023-12-23T04:52:29.564Z,1.01
2023-12-23T04:54:56.627Z,1.03
2023-12-23T04:57:23.722Z,0.82
2023-12-23T04:59:50.915Z,0.82
2023-12-23T05:02:18.080Z,1.07
2023-12-23T05:04:47.456Z,1.02
2023-12-23T05:07:14.615Z,0.84
2023-12-23T05:09:41.830Z,0.87
2023-12-23T05:12:09.116Z,0.95
2023-12-23T05:14:36.189Z,0.82
2023-12-23T05:17:03.239Z,0.86
2023-12-23T05:19:30.398Z,0.92
2023-12-23T05:21:57.448Z,0.84
2023-12-23T05:24:24.579Z,1.03
2023-12-23T05:26:51.726Z,0.73
2023-12-23T05:29:19.368Z,0.75
2023-12-23T05:31:46.576Z,0.88
2023-12-23T05:34:13.753Z,0.77
2023-12-23T05:36:40.867Z,0.70
2023-12-23T05:39:07.977Z,0.90
2023-12-23T05:41:35.031Z,0.83
2023-12-23T05:44:02.896Z,0.85
2023-12-23T05:46:30.664Z,0.74
2023-12-23T05:48:57.918Z,0.76
2023-12-23T05:51:25.122Z,0.71
2023-12-23T05:53:52.124Z,0.77
2023-12-23T05:56:19.165Z,0.71
2023-12-23T05:58:46.319Z,0.76
2023-12-23T06:01:13.399Z,0.74
2023-12-23T06:03:40.476Z,0.58
2023-12-23T06:06:07.752Z,0.63
2023-12-23T06:08:34.826Z,0.78
2023-12-23T06:11:03.660Z,0.81
2023-12-23T06:13:32.367Z,0.76
2023-12-23T06:15:59.522Z,0.55
2023-12-23T06:18:26.930Z,0.53
2023-12-23T06:20:54.101Z,0.72
2023-12-23T06:23:21.255Z,0.67
2023-12-23T06:25:48.345Z,0.70
2023-12-23T06:28:15.357Z,0.65
2023-12-23T06:30:43.437Z,0.65
2023-12-23T06:33:10.668Z,0.67
2023-12-23T06:35:37.997Z,0.86
2023-12-23T06:38:05.212Z,0.73
2023-12-23T06:40:32.315Z,1.05
2023-12-23T06:42:59.340Z,0.72
2023-12-23T06:45:26.348Z,0.72
2023-12-23T06:47:53.643Z,0.71
2023-12-23T06:50:20.857Z,1.17
2023-12-23T06:52:48.220Z,0.94
2023-12-23T06:55:15.366Z,0.83
2023-12-23T06:57:42.458Z,0.89
2023-12-23T07:00:10.653Z,1.04
2023-12-23T07:02:37.651Z,1.13
2023-12-23T07:05:05.350Z,0.95
2023-12-23T07:07:32.405Z,1.00
2023-12-23T07:10:04.980Z,1.08
2023-12-23T07:12:34.958Z,1.02
2023-12-23T07:15:04.485Z,0.94
2023-12-23T07:17:38.680Z,0.92
2023-12-23T07:20:10.779Z,1.05
2023-12-23T07:22:38.158Z,1.15
2023-12-23T07:25:06.394Z,1.01
2023-12-23T07:27:33.753Z,1.27
2023-12-23T07:30:00.867Z,1.19
2023-12-23T07:32:28.118Z,1.17
2023-12-23T07:34:55.299Z,1.13
2023-12-23T07:37:22.350Z,0.93
2023-12-23T07:39:49.489Z,1.50
2023-12-23T07:42:16.615Z,1.49
2023-12-23T07:44:43.712Z,1.37
2023-12-23T07:47:11.573Z,1.24
2023-12-23T07:49:39.510Z,1.12
2023-12-23T07:52:08.796Z,1.39
2023-12-23T07:54:36.051Z,1.46
2023-12-23T07:57:03.336Z,1.51
2023-12-23T07:59:30.364Z,1.25
2023-12-23T08:01:57.449Z,1.41
2023-12-23T08:04:24.604Z,1.49
2023-12-23T08:06:51.735Z,1.43
2023-12-23T08:09:18.888Z,1.47
2023-12-23T08:11:46.098Z,1.35
2023-12-23T08:14:13.264Z,1.88
2023-12-23T08:16:40.391Z,1.50
2023-12-23T08:19:07.496Z,1.45
2023-12-23T08:21:34.721Z,1.76
2023-12-23T08:24:05.220Z,1.61
2023-12-23T08:26:32.538Z,1.64
2023-12-23T08:28:59.635Z,1.39
2023-12-23T08:31:26.888Z,1.85
2023-12-23T08:33:54.094Z,2.06
2023-12-23T08:36:21.214Z,1.82
2023-12-23T08:38:48.506Z,1.79
2023-12-23T08:41:15.805Z,1.89
2023-12-23T08:43:43.493Z,1.87
2023-12-23T08:46:10.653Z,1.75
2023-12-23T08:48:38.852Z,2.12
2023-12-23T08:51:06.118Z,1.81
2023-12-23T08:53:33.413Z,1.90
2023-12-23T08:56:00.658Z,1.70
2023-12-23T08:58:27.802Z,1.78
2023-12-23T09:00:54.926Z,1.60
2023-12-23T09:03:22.139Z,1.66
2023-12-23T09:05:49.387Z,1.75
2023-12-23T09:08:16.596Z,1.95
2023-12-23T09:10:43.649Z,1.73
2023-12-23T09:13:10.766Z,1.67
2023-12-23T09:15:39.230Z,1.58
2023-12-23T09:18:06.927Z,1.72
2023-12-23T09:20:34.693Z,1.85
2023-12-23T09:23:01.997Z,1.69
2023-12-23T09:25:29.639Z,1.70
2023-12-23T09:27:56.740Z,1.83
2023-12-23T09:30:23.870Z,1.85
2023-12-23T09:32:51.261Z,1.98
2023-12-23T09:35:18.528Z,1.84
2023-12-23T09:37:46.578Z,1.92
2023-12-23T09:40:15.094Z,2.11
2023-12-23T09:42:42.734Z,2.12
2023-12-23T09:45:13.941Z,2.35
2023-12-23T09:47:41.180Z,2.56
2023-12-23T09:50:09.274Z,2.19
2023-12-23T09:52:36.564Z,2.15
2023-12-23T09:55:07.747Z,2.22
2023-12-23T09:57:35.694Z,2.33
2023-12-23T10:00:04.142Z,2.35
2023-12-23T10:02:31.196Z,2.40
2023-12-23T10:04:58.319Z,2.39
2023-12-23T10:07:25.408Z,2.39
2023-12-23T10:09:52.452Z,2.47
2023-12-23T10:12:22.136Z,2.08
2023-12-23T10:14:49.686Z,2.36
2023-12-23T10:17:18.735Z,2.30
2023-12-23T10:19:48.868Z,2.24
2023-12-23T10:22:18.903Z,2.47
2023-12-23T10:24:46.095Z,2.40
2023-12-23T10:27:17.506Z,2.58
2023-12-23T10:29:48.727Z,2.09
2023-12-23T10:32:25.489Z,2.33
2023-12-23T10:35:00.800Z,2.20
2023-12-23T10:37:29.113Z,2.24
2023-12-23T10:40:19.258Z,2.23
2023-12-23T10:42:48.964Z,2.21
2023-12-23T10:45:16.568Z,2.31
2023-12-23T10:47:45.304Z,2.39
2023-12-23T10:50:13.456Z,2.30
2023-12-23T10:52:43.037Z,2.32
2023-12-23T10:55:11.862Z,2.17
2023-12-23T10:57:42.062Z,2.25
2023-12-23T11:00:11.044Z,2.01
2023-12-23T11:02:39.269Z,2.03
2023-12-23T11:05:11.952Z,2.08
2023-12-23T11:07:53.746Z,1.85
2023-12-23T11:10:23.987Z,2.09
2023-12-23T11:12:51.463Z,2.37
2023-12-23T11:15:19.264Z,2.30
2023-12-23T11:17:47.616Z,2.26
2023-12-23T11:20:33.091Z,2.31
2023-12-23T11:23:28.602Z,2.48
2023-12-23T11:25:56.112Z,2.64
2023-12-23T11:28:28.350Z,2.49
2023-12-23T11:30:58.874Z,2.86
2023-12-23T11:33:31.415Z,2.90
2023-12-23T11:36:01.647Z,2.87
2023-12-23T11:38:49.966Z,2.72
2023-12-23T11:41:18.419Z,2.56
2023-12-23T11:43:46.732Z,2.80
2023-12-23T11:46:20.849Z,2.77
2023-12-23T11:48:48.845Z,2.59
2023-12-23T11:51:15.998Z,3.01
2023-12-23T11:53:44.257Z,2.89
2023-12-23T11:56:11.932Z,2.68
2023-12-23T11:58:39.447Z,2.79
2023-12-23T12:01:06.556Z,2.94
2023-12-23T12:03:33.742Z,3.61
2023-12-23T12:06:02.246Z,3.69
2023-12-23T12:08:29.921Z,4.20
2023-12-23T12:11:01.892Z,3.81
2023-12-23T12:13:40.173Z,3.49
2023-12-23T12:16:07.537Z,3.49
2023-12-23T12:18:34.813Z,3.14
2023-12-23T12:21:02.285Z,3.12
2023-12-23T12:23:29.701Z,3.37
2023-12-23T12:25:59.045Z,3.14
2023-12-23T12:28:27.457Z,2.90
2023-12-23T12:30:54.839Z,2.94
2023-12-23T12:33:22.044Z,3.02
2023-12-23T12:35:49.236Z,3.19
2023-12-23T12:38:22.914Z,3.16
2023-12-23T12:40:52.707Z,2.70
2023-12-23T12:43:23.490Z,2.99
2023-12-23T12:45:50.730Z,2.46
2023-12-23T12:48:18.072Z,2.63
2023-12-23T12:50:45.880Z,2.49
2023-12-23T12:53:17.122Z,2.25
2023-12-23T12:55:44.582Z,2.50
2023-12-23T12:58:12.026Z,2.47
2023-12-23T13:00:39.197Z,2.44
2023-12-23T13:03:06.888Z,2.65
2023-12-23T13:05:34.148Z,2.23
2023-12-23T13:08:01.337Z,2.22
2023-12-23T13:10:28.836Z,2.57
2023-12-23T13:12:55.941Z,2.58
2023-12-23T13:15:23.898Z,2.82
2023-12-23T13:17:51.330Z,2.40
2023-12-23T13:20:18.640Z,2.47
2023-12-23T13:22:48.608Z,2.17
2023-12-23T13:25:16.306Z,2.15
2023-12-23T13:27:43.417Z,2.37
2023-12-23T13:30:11.462Z,2.34
2023-12-23T13:32:38.819Z,2.12
2023-12-23T13:35:06.271Z,2.19
2023-12-23T13:37:33.452Z,2.01
2023-12-23T13:40:00.756Z,2.05
2023-12-23T13:42:27.883Z,2.19
2023-12-23T13:44:54.942Z,2.04
2023-12-23T13:47:23.003Z,1.97
2023-12-23T13:49:50.226Z,1.88
2023-12-23T13:52:18.992Z,1.91
2023-12-23T13:54:46.269Z,2.16
2023-12-23T13:57:13.390Z,1.75
2023-12-23T13:59:41.602Z,1.84
2023-12-23T14:02:09.290Z,1.89
2023-12-23T14:04:38.125Z,1.76
2023-12-23T14:07:05.370Z,1.93
2023-12-23T14:09:34.913Z,1.63
2023-12-23T14:12:02.160Z,1.84
2023-12-23T14:14:29.292Z,1.51
2023-12-23T14:16:56.390Z,1.65
2023-12-23T14:19:23.784Z,1.39
2023-12-23T14:21:51.059Z,1.53
2023-12-23T14:24:18.306Z,1.35
2023-12-23T14:26:46.357Z,1.32
2023-12-23T14:29:13.822Z,1.17
2023-12-23T14:31:41.190Z,1.24
2023-12-23T14:34:08.325Z,1.19
2023-12-23T14:36:35.436Z,1.18
2023-12-23T14:39:03.816Z,1.40
2023-12-23T14:41:31.304Z,1.13
2023-12-23T14:43:58.442Z,1.30
2023-12-23T14:46:25.630Z,1.18
2023-12-23T14:48:52.840Z,1.48
2023-12-23T14:51:21.650Z,1.22
2023-12-23T14:53:48.789Z,1.23
2023-12-23T14:56:15.902Z,1.44
2023-12-23T14:58:42.970Z,1.11
2023-12-23T15:01:10.368Z,1.27
2023-12-23T15:03:37.640Z,1.00
2023-12-23T15:06:05.090Z,1.42
2023-12-23T15:08:32.333Z,1.15
2023-12-23T15:10:59.457Z,1.00
2023-12-23T15:13:27.290Z,0.99
2023-12-23T15:15:54.474Z,0.77
2023-12-23T15:18:21.971Z,0.92
2023-12-23T15:20:49.154Z,0.90
2023-12-23T15:23:16.461Z,0.98
2023-12-23T15:25:43.528Z,0.91
2023-12-23T15:28:10.559Z,0.89
2023-12-23T15:30:37.681Z,0.94
2023-12-23T15:33:05.071Z,0.86
2023-12-23T15:35:32.439Z,0.83
2023-12-23T15:37:59.774Z,0.93
2023-12-23T15:40:26.818Z,1.08
2023-12-23T15:42:54.395Z,0.77
2023-12-23T15:45:21.694Z,0.88
2023-12-23T15:47:48.935Z,0.87
2023-12-23T15:50:16.459Z,0.93
2023-12-23T15:52:43.542Z,0.93
2023-12-23T15:55:11.894Z,0.89
2023-12-23T15:57:39.200Z,0.83
2023-12-23T16:00:07.573Z,0.97
2023-12-23T16:02:34.732Z,0.83
2023-12-23T16:05:02.884Z,0.83
2023-12-23T16:07:30.035Z,0.86
2023-12-23T16:09:57.484Z,0.93
2023-12-23T16:12:24.641Z,0.96
2023-12-23T16:14:51.715Z,0.86
2023-12-23T16:17:20.236Z,0.80
2023-12-23T16:19:47.561Z,0.66
2023-12-23T16:22:14.660Z,0.75
2023-12-23T16:24:44.950Z,0.73
2023-12-23T16:27:11.978Z,0.71
2023-12-23T16:29:43.140Z,0.62
2023-12-23T16:32:10.384Z,0.58
2023-12-23T16:34:37.556Z,0.57
2023-12-23T16:37:04.946Z,0.52
2023-12-23T16:39:32.042Z,0.72
2023-12-23T16:41:59.172Z,0.49
2023-12-23T16:44:26.443Z,0.46
2023-12-23T16:46:53.609Z,0.36
2023-12-23T16:49:20.745Z,0.45
2023-12-23T16:51:47.938Z,0.44
2023-12-23T16:54:15.404Z,0.47
2023-12-23T16:56:42.508Z,0.45
2023-12-23T16:59:09.586Z,0.24
2023-12-23T17:01:36.884Z,0.35
2023-12-23T17:04:04.107Z,0.33
2023-12-23T17:06:31.212Z,0.43
2023-12-23T17:08:58.394Z,0.44
2023-12-23T17:11:25.548Z,0.45
2023-12-23T17:13:52.707Z,0.38
2023-12-23T17:16:19.903Z,0.45
2023-12-23T17:18:47.122Z,0.55
2023-12-23T17:21:14.289Z,0.69
2023-12-23T17:23:42.098Z,0.71
2023-12-23T17:26:09.269Z,0.55
2023-12-23T17:28:36.612Z,0.44
2023-12-23T17:31:03.988Z,0.56
2023-12-23T17:33:31.327Z,0.40
2023-12-23T17:35:59.559Z,0.48
2023-12-23T17:38:26.622Z,0.44
2023-12-23T17:40:54.115Z,0.34
2023-12-23T17:43:21.215Z,0.30
2023-12-23T17:45:48.307Z,0.36
2023-12-23T17:48:15.420Z,0.27
2023-12-23T17:50:43.659Z,0.37
2023-12-23T17:53:10.812Z,0.30
2023-12-23T17:55:38.036Z,0.26
2023-12-23T17:58:05.287Z,0.24
2023-12-23T18:00:32.314Z,0.11
2023-12-23T18:02:59.553Z,0.13
2023-12-23T18:05:26.652Z,0.11
2023-12-23T18:07:56.539Z,0.26
2023-12-23T18:10:23.666Z,0.34
2023-12-23T18:12:50.909Z,0.21
2023-12-23T18:15:18.275Z,0.13
2023-12-23T18:17:45.508Z,0.33
2023-12-23T18:20:12.852Z,0.35
2023-12-23T18:22:39.944Z,0.19
2023-12-23T18:25:07.587Z,0.16
2023-12-23T18:27:34.622Z,0.20
2023-12-23T18:30:01.751Z,0.24
2023-12-23T18:32:29.231Z,0.06
2023-12-23T18:34:56.407Z,0.10
2023-12-23T18:37:23.603Z,0.18
2023-12-23T18:39:50.735Z,0.24
2023-12-23T18:42:18.566Z,0.11
2023-12-23T18:44:45.700Z,0.19
2023-12-23T18:47:12.805Z,0.17
2023-12-23T18:49:39.986Z,0.17
2023-12-23T18:52:07.180Z,0.09
2023-12-23T18:54:34.243Z,0.30
2023-12-23T18:57:04.041Z,0.38
2023-12-23T18:59:31.410Z,0.20
2023-12-23T19:01:58.697Z,0.26
2023-12-23T19:04:25.852Z,0.21
2023-12-23T19:06:53.083Z,0.26
2023-12-23T19:09:20.166Z,0.52
2023-12-23T19:11:47.220Z,0.38
2023-12-23T19:14:14.349Z,0.22
2023-12-23T19:16:41.469Z,0.19
2023-12-23T19:19:08.714Z,0.13
2023-12-23T19:21:44.130Z,0.17
2023-12-23T19:24:13.068Z,0.09
2023-12-23T19:26:40.240Z,0.29
2023-12-23T19:29:09.572Z,0.21
2023-12-23T19:31:43.849Z,0.12
2023-12-23T19:34:11.096Z,0.09
2023-12-23T19:36:38.458Z,0.02
2023-12-23T19:39:05.703Z,0.14
2023-12-23T19:41:32.906Z,0.03
2023-12-23T19:44:00.047Z,0.13
2023-12-23T19:46:27.525Z,0.03
2023-12-23T19:48:56.631Z,-0.04
2023-12-23T19:51:24.478Z,-0.10
2023-12-23T19:53:52.184Z,0.04
2023-12-23T19:56:19.462Z,0.01
2023-12-23T19:58:46.577Z,0.12
2023-12-23T20:01:13.718Z,-0.06
2023-12-23T20:03:44.098Z,0.05
2023-12-23T20:06:12.533Z,-0.11
2023-12-23T20:08:40.326Z,-0.08
2023-12-23T20:11:07.440Z,0.01
2023-12-23T20:13:35.943Z,0.13
2023-12-23T20:16:05.826Z,-0.04
2023-12-23T20:18:33.584Z,0.13
2023-12-23T20:21:00.641Z,-0.02
2023-12-23T20:23:27.754Z,0.01
2023-12-23T20:25:54.957Z,-0.12
2023-12-23T20:28:22.051Z,-0.04
2023-12-23T20:30:49.230Z,0.01
2023-12-23T20:33:16.483Z,0.04
2023-12-23T20:35:43.753Z,0.00
2023-12-23T20:38:10.889Z,0.07
2023-12-23T20:40:38.328Z,0.12
2023-12-23T20:43:05.550Z,-0.07
2023-12-23T20:45:32.722Z,-0.09
2023-12-23T20:48:00.729Z,-0.09
2023-12-23T20:50:27.978Z,-0.05
2023-12-23T20:52:55.462Z,0.02
2023-12-23T20:55:22.635Z,0.10
2023-12-23T20:57:49.733Z,0.13
2023-12-23T21:00:21.965Z,0.10
2023-12-23T21:02:49.303Z,0.13
2023-12-23T21:05:16.604Z,0.08
2023-12-23T21:07:43.882Z,0.06
2023-12-23T21:10:11.012Z,0.05
2023-12-23T21:12:38.205Z,-0.08
2023-12-23T21:15:05.963Z,-0.04
2023-12-23T21:17:34.766Z,0.15
2023-12-23T21:20:02.881Z,0.06
2023-12-23T21:22:30.377Z,0.03
2023-12-23T21:24:57.743Z,0.12
2023-12-23T21:27:25.026Z,0.17
2023-12-23T21:29:52.121Z,0.07
2023-12-23T21:32:19.296Z,0.09
2023-12-23T21:34:47.323Z,0.19
2023-12-23T21:37:14.619Z,0.03
2023-12-23T21:39:42.442Z,0.11
2023-12-23T21:42:09.612Z,0.08
2023-12-23T21:44:36.974Z,0.08
2023-12-23T21:47:04.737Z,0.09
2023-12-23T21:49:32.269Z,0.04
2023-12-23T21:52:00.065Z,0.17
2023-12-23T21:54:27.270Z,0.20
2023-12-23T21:56:54.301Z,0.15
2023-12-23T21:59:21.543Z,0.21
2023-12-23T22:01:48.649Z,0.29
2023-12-23T22:04:15.652Z,0.34
2023-12-23T22:06:44.318Z,0.27
2023-12-23T22:09:11.312Z,0.33
2023-12-23T22:11:38.814Z,0.29
2023-12-23T22:14:06.007Z,0.44
2023-12-23T22:16:33.048Z,0.36
2023-12-23T22:19:00.064Z,0.40
2023-12-23T22:21:27.543Z,0.49
2023-12-23T22:23:54.638Z,0.53
2023-12-23T22:26:21.773Z,0.73
2023-12-23T22:28:48.910Z,0.58
2023-12-23T22:31:16.060Z,0.68
2023-12-23T22:33:43.519Z,0.72
2023-12-23T22:36:11.315Z,0.96
2023-12-23T22:38:38.522Z,1.12
2023-12-23T22:41:06.403Z,0.95
2023-12-23T22:43:33.847Z,0.90
2023-12-23T22:46:00.925Z,0.97
2023-12-23T22:48:28.140Z,1.02
2023-12-23T22:50:55.179Z,1.14
2023-12-23T22:53:22.265Z,1.24
2023-12-23T22:55:49.314Z,1.22
2023-12-23T22:58:16.444Z,1.25
2023-12-23T23:00:44.608Z,1.17
2023-12-23T23:03:11.672Z,1.49
2023-12-23T23:05:39.119Z,1.48
2023-12-23T23:08:07.379Z,1.42
2023-12-23T23:10:34.944Z,1.36
2023-12-23T23:13:02.193Z,1.37
2023-12-23T23:15:29.249Z,1.43
2023-12-23T23:17:56.478Z,1.34
2023-12-23T23:20:23.719Z,1.31
2023-12-23T23:22:51.073Z,1.46
2023-12-23T23:25:18.418Z,1.33
2023-12-23T23:27:45.491Z,1.37
2023-12-23T23:30:12.947Z,1.43
2023-12-23T23:32:40.283Z,1.59
2023-12-23T23:35:11.637Z,1.39
2023-12-23T23:37:39.732Z,1.33
2023-12-23T23:40:07.977Z,1.28
2023-12-23T23:42:35.008Z,1.47
2023-12-23T23:45:02.086Z,1.57
2023-12-23T23:47:29.371Z,1.87
2023-12-23T23:49:56.761Z,1.59
2023-12-23T23:52:23.906Z,1.51
2023-12-23T23:54:51.023Z,1.77
2023-12-23T23:57:18.119Z,1.56
2023-12-23T23:59:45.329Z,1.79
